sensor_id;sensor_type;location;lat;lon;timestamp;pressure;altitude;pressure_sealevel;temperature;humidity
21431;BME280;10876;49.038;10.608;2023-02-26T00:00:16;98228.97;;;-0.84;100.00
21431;BME280;10876;49.038;10.608;2023-02-26T00:02:46;98227.88;;;-0.88;100.00
21431;BME280;10876;49.038;10.608;2023-02-26T00:05:14;98227.59;;;-0.87;100.00
21431;BME280;10876;49.038;10.608;2023-02-26T00:07:41;98232.09;;;-0.93;100.00
21431;BME280;10876;49.038;10.608;2023-02-26T00:10:12;98232.03;;;-0.98;100.00
21431;BME280;10876;49.038;10.608;2023-02-26T00:12:43;98234.16;;;-1.00;100.00
21431;BME280;10876;49.038;10.608;2023-02-26T00:15:12;98231.97;;;-1.03;100.00
21431;BME280;10876;49.038;10.608;2023-02-26T00:17:47;98236.19;;;-1.07;100.00
21431;BME280;10876;49.038;10.608;2023-02-26T00:20:17;98233.44;;;-1.12;100.00
21431;BME280;10876;49.038;10.608;2023-02-26T00:22:44;98246.38;;;-1.09;100.00
21431;BME280;10876;49.038;10.608;2023-02-26T00:25:13;98244.19;;;-1.12;100.00
21431;BME280;10876;49.038;10.608;2023-02-26T00:27:41;98246.81;;;-1.17;100.00
21431;BME280;10876;49.038;10.608;2023-02-26T00:30:10;98243.56;;;-1.19;100.00
21431;BME280;10876;49.038;10.608;2023-02-26T00:32:38;98255.91;;;-1.18;100.00
21431;BME280;10876;49.038;10.608;2023-02-26T00:35:06;98256.19;;;-1.20;100.00
21431;BME280;10876;49.038;10.608;2023-02-26T00:37:57;98253.16;;;-1.23;100.00
21431;BME280;10876;49.038;10.608;2023-02-26T00:40:34;98256.81;;;-1.29;100.00
21431;BME280;10876;49.038;10.608;2023-02-26T00:43:03;98256.19;;;-1.37;100.00
21431;BME280;10876;49.038;10.608;2023-02-26T00:45:30;98262.06;;;-1.40;100.00
21431;BME280;10876;49.038;10.608;2023-02-26T00:48:12;98265.53;;;-1.39;100.00
21431;BME280;10876;49.038;10.608;2023-02-26T00:50:45;98263.59;;;-1.44;100.00
21431;BME280;10876;49.038;10.608;2023-02-26T00:53:17;98275.38;;;-1.45;100.00
21431;BME280;10876;49.038;10.608;2023-02-26T00:55:49;98271.53;;;-1.49;100.00
21431;BME280;10876;49.038;10.608;2023-02-26T00:58:16;98272.03;;;-1.52;100.00
21431;BME280;10876;49.038;10.608;2023-02-26T01:00:43;98270.59;;;-1.60;100.00
21431;BME280;10876;49.038;10.608;2023-02-26T01:03:10;98273.00;;;-1.58;100.00
21431;BME280;10876;49.038;10.608;2023-02-26T01:05:38;98270.72;;;-1.66;100.00
21431;BME280;10876;49.038;10.608;2023-02-26T01:08:10;98281.47;;;-1.66;100.00
21431;BME280;10876;49.038;10.608;2023-02-26T01:10:40;98273.00;;;-1.75;100.00
21431;BME280;10876;49.038;10.608;2023-02-26T01:13:09;98270.56;;;-1.76;100.00
21431;BME280;10876;49.038;10.608;2023-02-26T01:15:37;98268.69;;;-1.76;100.00
21431;BME280;10876;49.038;10.608;2023-02-26T01:18:07;98268.38;;;-1.79;100.00
21431;BME280;10876;49.038;10.608;2023-02-26T01:20:43;98264.03;;;-1.81;100.00
21431;BME280;10876;49.038;10.608;2023-02-26T01:23:14;98261.13;;;-1.79;100.00
21431;BME280;10876;49.038;10.608;2023-02-26T01:25:45;98267.47;;;-1.85;100.00
21431;BME280;10876;49.038;10.608;2023-02-26T01:28:16;98260.81;;;-1.83;100.00
21431;BME280;10876;49.038;10.608;2023-02-26T01:30:43;98265.81;;;-1.86;100.00
21431;BME280;10876;49.038;10.608;2023-02-26T01:33:19;98268.19;;;-1.90;100.00
21431;BME280;10876;49.038;10.608;2023-02-26T01:35:50;98268.06;;;-1.95;100.00
21431;BME280;10876;49.038;10.608;2023-02-26T01:38:23;98265.41;;;-1.95;100.00
21431;BME280;10876;49.038;10.608;2023-02-26T01:41:24;98268.34;;;-1.96;100.00
21431;BME280;10876;49.038;10.608;2023-02-26T01:44:02;98268.06;;;-1.95;100.00
21431;BME280;10876;49.038;10.608;2023-02-26T01:46:35;98260.28;;;-1.96;100.00
21431;BME280;10876;49.038;10.608;2023-02-26T01:49:03;98254.59;;;-2.00;100.00
21431;BME280;10876;49.038;10.608;2023-02-26T01:51:48;98258.00;;;-2.05;100.00
21431;BME280;10876;49.038;10.608;2023-02-26T01:54:20;98263.03;;;-2.08;100.00
21431;BME280;10876;49.038;10.608;2023-02-26T01:56:49;98265.03;;;-2.15;100.00
21431;BME280;10876;49.038;10.608;2023-02-26T01:59:19;98264.81;;;-2.14;100.00
21431;BME280;10876;49.038;10.608;2023-02-26T02:01:50;98267.72;;;-2.15;100.00
21431;BME280;10876;49.038;10.608;2023-02-26T02:04:18;98275.19;;;-2.17;100.00
21431;BME280;10876;49.038;10.608;2023-02-26T02:06:46;98277.09;;;-2.30;100.00
21431;BME280;10876;49.038;10.608;2023-02-26T02:09:14;98273.84;;;-2.32;100.00
21431;BME280;10876;49.038;10.608;2023-02-26T02:11:53;98280.63;;;-2.41;100.00
21431;BME280;10876;49.038;10.608;2023-02-26T02:14:34;98282.13;;;-2.33;100.00
21431;BME280;10876;49.038;10.608;2023-02-26T02:17:10;98276.75;;;-2.33;100.00
21431;BME280;10876;49.038;10.608;2023-02-26T02:20:07;98274.78;;;-2.38;100.00
21431;BME280;10876;49.038;10.608;2023-02-26T02:23:01;98278.06;;;-2.36;100.00
21431;BME280;10876;49.038;10.608;2023-02-26T02:26:01;98271.72;;;-2.30;100.00
21431;BME280;10876;49.038;10.608;2023-02-26T02:28:41;98268.56;;;-2.27;100.00
21431;BME280;10876;49.038;10.608;2023-02-26T02:31:15;98274.63;;;-2.19;100.00
21431;BME280;10876;49.038;10.608;2023-02-26T02:33:48;98270.97;;;-2.13;100.00
21431;BME280;10876;49.038;10.608;2023-02-26T02:36:23;98271.47;;;-2.16;100.00
21431;BME280;10876;49.038;10.608;2023-02-26T02:38:55;98276.72;;;-2.21;100.00
21431;BME280;10876;49.038;10.608;2023-02-26T02:41:26;98273.22;;;-2.22;100.00
21431;BME280;10876;49.038;10.608;2023-02-26T02:43:58;98270.78;;;-2.23;100.00
21431;BME280;10876;49.038;10.608;2023-02-26T02:46:29;98267.88;;;-2.22;100.00
21431;BME280;10876;49.038;10.608;2023-02-26T02:49:00;98279.06;;;-2.25;100.00
21431;BME280;10876;49.038;10.608;2023-02-26T02:51:31;98275.00;;;-2.28;100.00
21431;BME280;10876;49.038;10.608;2023-02-26T02:54:04;98274.41;;;-2.30;100.00
21431;BME280;10876;49.038;10.608;2023-02-26T02:56:34;98280.69;;;-2.24;100.00
21431;BME280;10876;49.038;10.608;2023-02-26T02:59:13;98271.72;;;-2.30;100.00
21431;BME280;10876;49.038;10.608;2023-02-26T03:01:44;98281.31;;;-2.34;100.00
21431;BME280;10876;49.038;10.608;2023-02-26T03:04:12;98288.44;;;-2.39;100.00
21431;BME280;10876;49.038;10.608;2023-02-26T03:06:41;98284.47;;;-2.37;100.00
21431;BME280;10876;49.038;10.608;2023-02-26T03:09:11;98289.25;;;-2.39;100.00
21431;BME280;10876;49.038;10.608;2023-02-26T03:11:38;98293.94;;;-2.46;100.00
21431;BME280;10876;49.038;10.608;2023-02-26T03:14:06;98290.19;;;-2.45;100.00
21431;BME280;10876;49.038;10.608;2023-02-26T03:16:52;98286.59;;;-2.51;100.00
21431;BME280;10876;49.038;10.608;2023-02-26T03:19:26;98296.19;;;-2.55;100.00
21431;BME280;10876;49.038;10.608;2023-02-26T03:21:58;98296.19;;;-2.55;100.00
21431;BME280;10876;49.038;10.608;2023-02-26T03:24:35;98303.75;;;-2.63;100.00
21431;BME280;10876;49.038;10.608;2023-02-26T03:27:09;98299.81;;;-2.73;100.00
21431;BME280;10876;49.038;10.608;2023-02-26T03:29:39;98307.28;;;-2.75;100.00
21431;BME280;10876;49.038;10.608;2023-02-26T03:32:14;98310.06;;;-2.69;100.00
21431;BME280;10876;49.038;10.608;2023-02-26T03:34:45;98314.75;;;-2.77;100.00
21431;BME280;10876;49.038;10.608;2023-02-26T03:37:20;98312.66;;;-2.75;100.00
21431;BME280;10876;49.038;10.608;2023-02-26T03:39:51;98325.44;;;-2.77;100.00
21431;BME280;10876;49.038;10.608;2023-02-26T03:42:21;98322.19;;;-2.79;100.00
21431;BME280;10876;49.038;10.608;2023-02-26T03:44:52;98327.78;;;-2.92;100.00
21431;BME280;10876;49.038;10.608;2023-02-26T03:47:24;98327.78;;;-2.92;100.00
21431;BME280;10876;49.038;10.608;2023-02-26T03:49:54;98332.66;;;-3.12;100.00
21431;BME280;10876;49.038;10.608;2023-02-26T03:52:25;98338.16;;;-3.07;100.00
21431;BME280;10876;49.038;10.608;2023-02-26T03:54:57;98347.31;;;-3.27;100.00
21431;BME280;10876;49.038;10.608;2023-02-26T03:57:26;98351.34;;;-3.48;100.00
21431;BME280;10876;49.038;10.608;2023-02-26T03:59:53;98350.63;;;-3.55;100.00
21431;BME280;10876;49.038;10.608;2023-02-26T04:02:26;98355.44;;;-3.45;100.00
21431;BME280;10876;49.038;10.608;2023-02-26T04:05:00;98360.97;;;-3.58;100.00
21431;BME280;10876;49.038;10.608;2023-02-26T04:07:29;98366.06;;;-3.69;100.00
21431;BME280;10876;49.038;10.608;2023-02-26T04:09:56;98374.88;;;-3.80;100.00
21431;BME280;10876;49.038;10.608;2023-02-26T04:12:25;98374.69;;;-3.97;100.00
21431;BME280;10876;49.038;10.608;2023-02-26T04:14:52;98383.72;;;-3.98;100.00
21431;BME280;10876;49.038;10.608;2023-02-26T04:17:19;98382.00;;;-3.92;100.00
21431;BME280;10876;49.038;10.608;2023-02-26T04:19:48;98390.38;;;-4.00;100.00
21431;BME280;10876;49.038;10.608;2023-02-26T04:22:15;98385.44;;;-4.03;100.00
21431;BME280;10876;49.038;10.608;2023-02-26T04:24:42;98391.22;;;-3.88;100.00
21431;BME280;10876;49.038;10.608;2023-02-26T04:27:08;98389.94;;;-3.55;100.00
21431;BME280;10876;49.038;10.608;2023-02-26T04:29:35;98386.34;;;-3.49;100.00
21431;BME280;10876;49.038;10.608;2023-02-26T04:32:04;98386.47;;;-3.56;100.00
21431;BME280;10876;49.038;10.608;2023-02-26T04:34:31;98381.47;;;-3.52;100.00
21431;BME280;10876;49.038;10.608;2023-02-26T04:36:59;98400.41;;;-3.66;100.00
21431;BME280;10876;49.038;10.608;2023-02-26T04:39:26;98397.06;;;-3.49;100.00
21431;BME280;10876;49.038;10.608;2023-02-26T04:41:53;98395.72;;;-3.40;100.00
21431;BME280;10876;49.038;10.608;2023-02-26T04:44:20;98398.41;;;-3.28;100.00
21431;BME280;10876;49.038;10.608;2023-02-26T04:46:47;98401.78;;;-3.33;100.00
21431;BME280;10876;49.038;10.608;2023-02-26T04:49:14;98397.16;;;-3.26;100.00
21431;BME280;10876;49.038;10.608;2023-02-26T04:51:41;98403.66;;;-3.22;100.00
21431;BME280;10876;49.038;10.608;2023-02-26T04:54:09;98399.13;;;-3.21;100.00
21431;BME280;10876;49.038;10.608;2023-02-26T04:56:36;98396.81;;;-3.18;100.00
21431;BME280;10876;49.038;10.608;2023-02-26T04:59:03;98406.59;;;-3.11;100.00
21431;BME280;10876;49.038;10.608;2023-02-26T05:01:30;98407.63;;;-3.12;100.00
21431;BME280;10876;49.038;10.608;2023-02-26T05:03:57;98408.38;;;-3.05;100.00
21431;BME280;10876;49.038;10.608;2023-02-26T05:06:24;98409.97;;;-3.04;100.00
21431;BME280;10876;49.038;10.608;2023-02-26T05:08:51;98412.78;;;-2.99;100.00
21431;BME280;10876;49.038;10.608;2023-02-26T05:11:20;98408.59;;;-2.95;100.00
21431;BME280;10876;49.038;10.608;2023-02-26T05:13:47;98411.88;;;-2.93;100.00
21431;BME280;10876;49.038;10.608;2023-02-26T05:16:13;98410.94;;;-2.87;100.00
21431;BME280;10876;49.038;10.608;2023-02-26T05:18:41;98422.00;;;-2.83;100.00
21431;BME280;10876;49.038;10.608;2023-02-26T05:21:08;98421.16;;;-3.07;100.00
21431;BME280;10876;49.038;10.608;2023-02-26T05:23:35;98416.63;;;-2.95;100.00
21431;BME280;10876;49.038;10.608;2023-02-26T05:26:02;98420.25;;;-3.01;100.00
21431;BME280;10876;49.038;10.608;2023-02-26T05:28:30;98426.44;;;-2.89;100.00
21431;BME280;10876;49.038;10.608;2023-02-26T05:30:58;98427.81;;;-2.86;100.00
21431;BME280;10876;49.038;10.608;2023-02-26T05:33:25;98427.00;;;-2.87;100.00
21431;BME280;10876;49.038;10.608;2023-02-26T05:35:53;98433.19;;;-2.86;100.00
21431;BME280;10876;49.038;10.608;2023-02-26T05:38:19;98428.06;;;-2.76;100.00
21431;BME280;10876;49.038;10.608;2023-02-26T05:40:47;98432.97;;;-2.73;100.00
21431;BME280;10876;49.038;10.608;2023-02-26T05:43:14;98430.06;;;-2.72;100.00
21431;BME280;10876;49.038;10.608;2023-02-26T05:45:42;98431.69;;;-2.70;100.00
21431;BME280;10876;49.038;10.608;2023-02-26T05:48:09;98424.94;;;-2.61;100.00
21431;BME280;10876;49.038;10.608;2023-02-26T05:50:37;98426.00;;;-2.62;100.00
21431;BME280;10876;49.038;10.608;2023-02-26T05:53:03;98432.50;;;-2.58;100.00
21431;BME280;10876;49.038;10.608;2023-02-26T05:55:30;98434.25;;;-2.76;100.00
21431;BME280;10876;49.038;10.608;2023-02-26T05:57:57;98430.63;;;-2.69;100.00
21431;BME280;10876;49.038;10.608;2023-02-26T06:00:24;98427.50;;;-2.66;100.00
21431;BME280;10876;49.038;10.608;2023-02-26T06:02:53;98443.56;;;-2.66;100.00
21431;BME280;10876;49.038;10.608;2023-02-26T06:05:20;98443.56;;;-2.66;100.00
21431;BME280;10876;49.038;10.608;2023-02-26T06:07:47;98445.22;;;-2.65;100.00
21431;BME280;10876;49.038;10.608;2023-02-26T06:10:14;98450.09;;;-2.74;100.00
21431;BME280;10876;49.038;10.608;2023-02-26T06:12:41;98464.06;;;-2.84;100.00
21431;BME280;10876;49.038;10.608;2023-02-26T06:15:09;98461.50;;;-2.79;100.00
21431;BME280;10876;49.038;10.608;2023-02-26T06:17:36;98467.22;;;-2.75;100.00
21431;BME280;10876;49.038;10.608;2023-02-26T06:20:05;98471.41;;;-2.79;100.00
21431;BME280;10876;49.038;10.608;2023-02-26T06:22:32;98479.22;;;-2.78;100.00
21431;BME280;10876;49.038;10.608;2023-02-26T06:24:59;98482.25;;;-2.86;100.00
21431;BME280;10876;49.038;10.608;2023-02-26T06:27:26;98486.69;;;-2.80;100.00
21431;BME280;10876;49.038;10.608;2023-02-26T06:29:53;98492.50;;;-2.83;100.00
21431;BME280;10876;49.038;10.608;2023-02-26T06:32:20;98493.19;;;-2.76;100.00
21431;BME280;10876;49.038;10.608;2023-02-26T06:34:47;98497.16;;;-2.66;100.00
21431;BME280;10876;49.038;10.608;2023-02-26T06:37:15;98501.19;;;-2.45;100.00
21431;BME280;10876;49.038;10.608;2023-02-26T06:39:42;98499.09;;;-2.32;100.00
21431;BME280;10876;49.038;10.608;2023-02-26T06:42:09;98498.97;;;-2.25;100.00
21431;BME280;10876;49.038;10.608;2023-02-26T06:44:36;98498.50;;;-2.22;100.00
21431;BME280;10876;49.038;10.608;2023-02-26T06:47:03;98508.53;;;-2.17;100.00
21431;BME280;10876;49.038;10.608;2023-02-26T06:49:30;98510.38;;;-2.18;100.00
21431;BME280;10876;49.038;10.608;2023-02-26T06:51:57;98516.00;;;-2.31;100.00
21431;BME280;10876;49.038;10.608;2023-02-26T06:54:26;98513.06;;;-2.30;100.00
21431;BME280;10876;49.038;10.608;2023-02-26T06:56:52;98518.31;;;-2.35;100.00
21431;BME280;10876;49.038;10.608;2023-02-26T06:59:22;98520.88;;;-2.40;100.00
21431;BME280;10876;49.038;10.608;2023-02-26T07:01:49;98529.84;;;-2.46;100.00
21431;BME280;10876;49.038;10.608;2023-02-26T07:04:16;98533.09;;;-2.44;100.00
21431;BME280;10876;49.038;10.608;2023-02-26T07:06:43;98541.28;;;-2.39;100.00
21431;BME280;10876;49.038;10.608;2023-02-26T07:09:10;98542.69;;;-2.24;100.00
21431;BME280;10876;49.038;10.608;2023-02-26T07:11:38;98551.53;;;-2.00;100.00
21431;BME280;10876;49.038;10.608;2023-02-26T07:14:05;98548.75;;;-1.94;100.00
21431;BME280;10876;49.038;10.608;2023-02-26T07:16:32;98549.34;;;-2.04;100.00
21431;BME280;10876;49.038;10.608;2023-02-26T07:18:59;98558.78;;;-2.13;100.00
21431;BME280;10876;49.038;10.608;2023-02-26T07:21:26;98552.94;;;-1.98;100.00
21431;BME280;10876;49.038;10.608;2023-02-26T07:23:53;98556.94;;;-1.89;100.00
21431;BME280;10876;49.038;10.608;2023-02-26T07:26:20;98555.88;;;-1.88;100.00
21431;BME280;10876;49.038;10.608;2023-02-26T07:28:48;98561.38;;;-1.83;100.00
21431;BME280;10876;49.038;10.608;2023-02-26T07:31:15;98571.50;;;-1.85;100.00
21431;BME280;10876;49.038;10.608;2023-02-26T07:33:42;98572.22;;;-1.66;100.00
21431;BME280;10876;49.038;10.608;2023-02-26T07:36:09;98567.59;;;-1.42;100.00
21431;BME280;10876;49.038;10.608;2023-02-26T07:38:37;98568.56;;;-1.07;100.00
21431;BME280;10876;49.038;10.608;2023-02-26T07:41:04;98566.31;;;-0.70;100.00
21431;BME280;10876;49.038;10.608;2023-02-26T07:43:31;98568.72;;;-0.23;100.00
21431;BME280;10876;49.038;10.608;2023-02-26T07:45:59;98559.59;;;-0.39;100.00
21431;BME280;10876;49.038;10.608;2023-02-26T07:48:26;98555.44;;;-0.13;100.00
21431;BME280;10876;49.038;10.608;2023-02-26T07:50:54;98563.09;;;-0.05;100.00
21431;BME280;10876;49.038;10.608;2023-02-26T07:53:21;98573.03;;;0.12;100.00
21431;BME280;10876;49.038;10.608;2023-02-26T07:55:48;98571.25;;;0.39;100.00
21431;BME280;10876;49.038;10.608;2023-02-26T07:58:15;98564.53;;;0.59;100.00
21431;BME280;10876;49.038;10.608;2023-02-26T08:00:42;98569.59;;;0.99;100.00
21431;BME280;10876;49.038;10.608;2023-02-26T08:03:10;98581.13;;;1.17;100.00
21431;BME280;10876;49.038;10.608;2023-02-26T08:05:37;98586.81;;;1.20;100.00
21431;BME280;10876;49.038;10.608;2023-02-26T08:08:04;98586.59;;;1.00;100.00
21431;BME280;10876;49.038;10.608;2023-02-26T08:10:31;98598.47;;;0.60;100.00
21431;BME280;10876;49.038;10.608;2023-02-26T08:12:58;98593.50;;;0.30;100.00
21431;BME280;10876;49.038;10.608;2023-02-26T08:15:25;98601.50;;;0.08;100.00
21431;BME280;10876;49.038;10.608;2023-02-26T08:17:52;98602.31;;;-0.09;100.00
21431;BME280;10876;49.038;10.608;2023-02-26T08:20:21;98599.88;;;0.07;100.00
21431;BME280;10876;49.038;10.608;2023-02-26T08:22:49;98602.16;;;0.32;100.00
21431;BME280;10876;49.038;10.608;2023-02-26T08:25:16;98601.34;;;0.14;100.00
21431;BME280;10876;49.038;10.608;2023-02-26T08:27:43;98615.22;;;0.06;100.00
21431;BME280;10876;49.038;10.608;2023-02-26T08:30:11;98611.69;;;0.06;100.00
21431;BME280;10876;49.038;10.608;2023-02-26T08:32:38;98624.31;;;-0.12;100.00
21431;BME280;10876;49.038;10.608;2023-02-26T08:35:07;98627.53;;;-0.43;100.00
21431;BME280;10876;49.038;10.608;2023-02-26T08:37:35;98635.34;;;-0.59;100.00
21431;BME280;10876;49.038;10.608;2023-02-26T08:40:03;98635.53;;;-0.49;100.00
21431;BME280;10876;49.038;10.608;2023-02-26T08:42:30;98642.53;;;-0.48;100.00
21431;BME280;10876;49.038;10.608;2023-02-26T08:44:57;98653.84;;;-0.62;100.00
21431;BME280;10876;49.038;10.608;2023-02-26T08:47:24;98648.03;;;-0.71;100.00
21431;BME280;10876;49.038;10.608;2023-02-26T08:49:51;98658.78;;;-0.71;100.00
21431;BME280;10876;49.038;10.608;2023-02-26T08:52:18;98658.31;;;-0.68;100.00
21431;BME280;10876;49.038;10.608;2023-02-26T08:54:46;98659.16;;;-0.51;100.00
21431;BME280;10876;49.038;10.608;2023-02-26T08:57:14;98670.69;;;-0.67;100.00
21431;BME280;10876;49.038;10.608;2023-02-26T08:59:43;98666.38;;;-0.68;100.00
21431;BME280;10876;49.038;10.608;2023-02-26T09:02:10;98672.84;;;-0.52;100.00
21431;BME280;10876;49.038;10.608;2023-02-26T09:04:37;98680.94;;;-0.64;100.00
21431;BME280;10876;49.038;10.608;2023-02-26T09:07:04;98672.19;;;-0.59;100.00
21431;BME280;10876;49.038;10.608;2023-02-26T09:09:31;98685.84;;;-0.61;100.00
21431;BME280;10876;49.038;10.608;2023-02-26T09:11:59;98685.16;;;-0.56;100.00
21431;BME280;10876;49.038;10.608;2023-02-26T09:14:27;98687.03;;;-0.57;100.00
21431;BME280;10876;49.038;10.608;2023-02-26T09:16:53;98695.16;;;-0.52;100.00
21431;BME280;10876;49.038;10.608;2023-02-26T09:19:21;98690.19;;;-0.31;100.00
21431;BME280;10876;49.038;10.608;2023-02-26T09:21:48;98700.22;;;-0.27;100.00
21431;BME280;10876;49.038;10.608;2023-02-26T09:24:15;98696.25;;;-0.24;100.00
21431;BME280;10876;49.038;10.608;2023-02-26T09:26:42;98697.28;;;0.04;100.00
21431;BME280;10876;49.038;10.608;2023-02-26T09:29:10;98712.34;;;0.05;100.00
21431;BME280;10876;49.038;10.608;2023-02-26T09:31:39;98711.47;;;0.16;100.00
21431;BME280;10876;49.038;10.608;2023-02-26T09:34:11;98709.56;;;-0.01;100.00
21431;BME280;10876;49.038;10.608;2023-02-26T09:36:39;98723.00;;;-0.17;100.00
21431;BME280;10876;49.038;10.608;2023-02-26T09:39:08;98720.72;;;-0.26;100.00
21431;BME280;10876;49.038;10.608;2023-02-26T09:41:37;98722.81;;;-0.28;100.00
21431;BME280;10876;49.038;10.608;2023-02-26T09:44:12;98736.16;;;-0.33;100.00
21431;BME280;10876;49.038;10.608;2023-02-26T09:46:47;98734.97;;;-0.25;100.00
21431;BME280;10876;49.038;10.608;2023-02-26T09:49:21;98739.28;;;-0.24;100.00
21431;BME280;10876;49.038;10.608;2023-02-26T09:51:54;98743.16;;;-0.20;100.00
21431;BME280;10876;49.038;10.608;2023-02-26T09:54:24;98746.78;;;-0.26;100.00
21431;BME280;10876;49.038;10.608;2023-02-26T09:56:56;98751.72;;;-0.35;100.00
21431;BME280;10876;49.038;10.608;2023-02-26T09:59:28;98753.34;;;-0.22;100.00
21431;BME280;10876;49.038;10.608;2023-02-26T10:02:00;98760.53;;;-0.11;100.00
21431;BME280;10876;49.038;10.608;2023-02-26T10:04:43;98748.09;;;0.00;100.00
21431;BME280;10876;49.038;10.608;2023-02-26T10:07:20;98744.06;;;0.14;100.00
21431;BME280;10876;49.038;10.608;2023-02-26T10:10:02;98746.56;;;0.21;100.00
21431;BME280;10876;49.038;10.608;2023-02-26T10:12:33;98745.63;;;0.61;100.00
21431;BME280;10876;49.038;10.608;2023-02-26T10:15:07;98753.13;;;0.59;100.00
21431;BME280;10876;49.038;10.608;2023-02-26T10:17:44;98753.31;;;0.86;100.00
21431;BME280;10876;49.038;10.608;2023-02-26T10:20:16;98758.31;;;1.16;100.00
21431;BME280;10876;49.038;10.608;2023-02-26T10:22:51;98761.78;;;0.95;100.00
21431;BME280;10876;49.038;10.608;2023-02-26T10:25:23;98773.50;;;1.05;100.00
21431;BME280;10876;49.038;10.608;2023-02-26T10:27:57;98779.91;;;0.82;100.00
21431;BME280;10876;49.038;10.608;2023-02-26T10:30:32;98779.09;;;0.99;100.00
21431;BME280;10876;49.038;10.608;2023-02-26T10:33:09;98784.44;;;1.32;100.00
21431;BME280;10876;49.038;10.608;2023-02-26T10:35:41;98791.41;;;1.11;100.00
21431;BME280;10876;49.038;10.608;2023-02-26T10:38:14;98796.88;;;1.00;100.00
21431;BME280;10876;49.038;10.608;2023-02-26T10:40:48;98797.53;;;1.24;100.00
21431;BME280;10876;49.038;10.608;2023-02-26T10:43:18;98815.03;;;1.04;100.00
21431;BME280;10876;49.038;10.608;2023-02-26T10:46:00;98821.16;;;0.83;100.00
21431;BME280;10876;49.038;10.608;2023-02-26T10:48:39;98820.91;;;0.84;100.00
21431;BME280;10876;49.038;10.608;2023-02-26T10:51:12;98822.06;;;0.88;100.00
21431;BME280;10876;49.038;10.608;2023-02-26T10:53:42;98819.31;;;0.83;100.00
21431;BME280;10876;49.038;10.608;2023-02-26T10:56:12;98820.91;;;0.84;100.00
21431;BME280;10876;49.038;10.608;2023-02-26T10:58:41;98816.34;;;0.68;100.00
21431;BME280;10876;49.038;10.608;2023-02-26T11:01:14;98822.53;;;0.85;100.00
21431;BME280;10876;49.038;10.608;2023-02-26T11:03:44;98825.25;;;0.85;100.00
21431;BME280;10876;49.038;10.608;2023-02-26T11:06:17;98824.19;;;0.86;100.00
21431;BME280;10876;49.038;10.608;2023-02-26T11:08:48;98828.56;;;0.59;100.00
21431;BME280;10876;49.038;10.608;2023-02-26T11:11:40;98830.19;;;0.60;100.00
21431;BME280;10876;49.038;10.608;2023-02-26T11:14:08;98827.28;;;0.78;100.00
21431;BME280;10876;49.038;10.608;2023-02-26T11:16:44;98826.81;;;0.81;100.00
21431;BME280;10876;49.038;10.608;2023-02-26T11:19:14;98824.00;;;0.76;100.00
21431;BME280;10876;49.038;10.608;2023-02-26T11:21:43;98825.81;;;0.87;100.00
21431;BME280;10876;49.038;10.608;2023-02-26T11:24:14;98823.72;;;0.89;100.00
21431;BME280;10876;49.038;10.608;2023-02-26T11:26:45;98833.50;;;0.96;100.00
21431;BME280;10876;49.038;10.608;2023-02-26T11:29:14;98834.47;;;1.23;100.00
21431;BME280;10876;49.038;10.608;2023-02-26T11:31:46;98839.22;;;1.16;100.00
21431;BME280;10876;49.038;10.608;2023-02-26T11:34:14;98837.91;;;1.02;100.00
21431;BME280;10876;49.038;10.608;2023-02-26T11:36:43;98846.09;;;1.24;100.00
21431;BME280;10876;49.038;10.608;2023-02-26T11:39:15;98842.00;;;1.60;100.00
21431;BME280;10876;49.038;10.608;2023-02-26T11:41:45;98855.97;;;1.18;100.00
21431;BME280;10876;49.038;10.608;2023-02-26T11:44:28;98854.41;;;1.22;100.00
21431;BME280;10876;49.038;10.608;2023-02-26T11:47:01;98866.50;;;1.37;100.00
21431;BME280;10876;49.038;10.608;2023-02-26T11:49:29;98858.41;;;1.20;100.00
21431;BME280;10876;49.038;10.608;2023-02-26T11:52:05;98867.50;;;1.13;100.00
21431;BME280;10876;49.038;10.608;2023-02-26T11:54:35;98862.09;;;1.30;100.00
21431;BME280;10876;49.038;10.608;2023-02-26T11:57:06;98857.84;;;1.34;100.00
21431;BME280;10876;49.038;10.608;2023-02-26T11:59:39;98864.88;;;1.35;100.00
21431;BME280;10876;49.038;10.608;2023-02-26T12:02:12;98869.59;;;1.45;100.00
21431;BME280;10876;49.038;10.608;2023-02-26T12:04:43;98862.31;;;1.85;100.00
21431;BME280;10876;49.038;10.608;2023-02-26T12:07:13;98864.44;;;1.83;100.00
21431;BME280;10876;49.038;10.608;2023-02-26T12:09:40;98857.97;;;1.84;100.00
21431;BME280;10876;49.038;10.608;2023-02-26T12:15:16;98852.88;;;2.58;100.00
21431;BME280;10876;49.038;10.608;2023-02-26T12:21:06;98850.59;;;2.45;100.00
21431;BME280;10876;49.038;10.608;2023-02-26T12:24:14;98847.16;;;2.06;100.00
21431;BME280;10876;49.038;10.608;2023-02-26T12:26:55;98845.78;;;2.03;100.00
21431;BME280;10876;49.038;10.608;2023-02-26T12:29:38;98845.16;;;1.96;100.00
21431;BME280;10876;49.038;10.608;2023-02-26T12:32:20;98837.44;;;1.83;100.00
21431;BME280;10876;49.038;10.608;2023-02-26T12:35:18;98839.75;;;2.18;100.00
21431;BME280;10876;49.038;10.608;2023-02-26T12:37:58;98830.22;;;2.10;100.00
21431;BME280;10876;49.038;10.608;2023-02-26T12:40:44;98820.91;;;2.50;100.00
21431;BME280;10876;49.038;10.608;2023-02-26T12:43:20;98817.00;;;2.68;100.00
21431;BME280;10876;49.038;10.608;2023-02-26T12:45:53;98826.91;;;3.22;100.00
21431;BME280;10876;49.038;10.608;2023-02-26T12:48:54;98810.16;;;3.25;100.00
21431;BME280;10876;49.038;10.608;2023-02-26T12:51:37;98812.63;;;2.94;100.00
21431;BME280;10876;49.038;10.608;2023-02-26T12:54:32;98814.44;;;2.24;100.00
21431;BME280;10876;49.038;10.608;2023-02-26T12:57:44;98811.53;;;2.31;100.00
21431;BME280;10876;49.038;10.608;2023-02-26T13:00:21;98803.06;;;2.49;100.00
21431;BME280;10876;49.038;10.608;2023-02-26T13:03:09;98800.56;;;2.15;100.00
21431;BME280;10876;49.038;10.608;2023-02-26T13:06:04;98810.81;;;1.91;100.00
21431;BME280;10876;49.038;10.608;2023-02-26T13:08:39;98818.97;;;1.74;100.00